Formosa, Brazil
Current Conditions -  °F | °C
As of 4:00 AM on Saturday 25 Oct 2014 (Local Time) from SBBR Reporting Station
Scattered Clouds Scattered Clouds  
Wind Chill: 73°   Ceiling: Unl
Heat Index: 73°   Visibility: 6mi
Dew Point: 59°   Wind: 7mph
Humidity: 61%   Direction: 200°SSW
Pressure: 29.97"   Gusts: NA
Location:  15.54°S, 47.34°W
Report Text: SBBR 250600Z 20006KT 9999 FEW020 SCT080 23/15 Q1015
Loading
Personal Weather Stations






























Interactive Weather Map
Tropical Storm Tracking
New forecast layout! Learn more

10-Day Weather Forecast

Advertisements
Track Severe Weather on mobile